sensor_id;sensor_type;location;lat;lon;timestamp;P1;durP1;ratioP1;P2;durP2;ratioP2
11443;SDS011;5778;47.856;12.154;2023-02-21T00:00:35;2.33;;;2.10;;
11443;SDS011;5778;47.856;12.154;2023-02-21T00:03:19;2.83;;;2.20;;
11443;SDS011;5778;47.856;12.154;2023-02-21T00:06:07;2.40;;;2.07;;
11443;SDS011;5778;47.856;12.154;2023-02-21T00:08:52;6.57;;;2.33;;
11443;SDS011;5778;47.856;12.154;2023-02-21T00:11:39;3.97;;;2.30;;
11443;SDS011;5778;47.856;12.154;2023-02-21T00:14:24;3.40;;;2.30;;
11443;SDS011;5778;47.856;12.154;2023-02-21T00:17:09;3.60;;;2.30;;
11443;SDS011;5778;47.856;12.154;2023-02-21T00:19:53;3.30;;;2.40;;
11443;SDS011;5778;47.856;12.154;2023-02-21T00:22:45;2.97;;;2.33;;
11443;SDS011;5778;47.856;12.154;2023-02-21T00:25:30;3.27;;;2.50;;
11443;SDS011;5778;47.856;12.154;2023-02-21T00:28:14;3.47;;;2.40;;
11443;SDS011;5778;47.856;12.154;2023-02-21T00:30:58;3.60;;;2.60;;
11443;SDS011;5778;47.856;12.154;2023-02-21T00:33:43;3.30;;;2.10;;
11443;SDS011;5778;47.856;12.154;2023-02-21T00:36:28;4.07;;;2.17;;
11443;SDS011;5778;47.856;12.154;2023-02-21T00:39:14;2.40;;;2.10;;
11443;SDS011;5778;47.856;12.154;2023-02-21T00:41:58;3.37;;;2.40;;
11443;SDS011;5778;47.856;12.154;2023-02-21T00:44:43;4.70;;;2.30;;
11443;SDS011;5778;47.856;12.154;2023-02-21T00:47:28;5.47;;;2.30;;
11443;SDS011;5778;47.856;12.154;2023-02-21T00:50:13;6.20;;;2.50;;
11443;SDS011;5778;47.856;12.154;2023-02-21T00:52:57;6.10;;;2.97;;
11443;SDS011;5778;47.856;12.154;2023-02-21T00:55:43;5.87;;;2.40;;
11443;SDS011;5778;47.856;12.154;2023-02-21T00:58:28;4.87;;;2.27;;
11443;SDS011;5778;47.856;12.154;2023-02-21T01:01:13;4.57;;;2.43;;
11443;SDS011;5778;47.856;12.154;2023-02-21T01:03:57;2.87;;;2.30;;
11443;SDS011;5778;47.856;12.154;2023-02-21T01:06:41;4.80;;;2.80;;
11443;SDS011;5778;47.856;12.154;2023-02-21T01:09:26;2.53;;;2.07;;
11443;SDS011;5778;47.856;12.154;2023-02-21T01:12:13;3.57;;;2.30;;
11443;SDS011;5778;47.856;12.154;2023-02-21T01:14:57;4.43;;;2.37;;
11443;SDS011;5778;47.856;12.154;2023-02-21T01:17:42;3.30;;;2.33;;
11443;SDS011;5778;47.856;12.154;2023-02-21T01:20:27;3.53;;;2.43;;
11443;SDS011;5778;47.856;12.154;2023-02-21T01:23:11;2.83;;;2.40;;
11443;SDS011;5778;47.856;12.154;2023-02-21T01:25:56;6.57;;;2.57;;
11443;SDS011;5778;47.856;12.154;2023-02-21T01:28:42;2.33;;;2.13;;
11443;SDS011;5778;47.856;12.154;2023-02-21T01:31:26;2.80;;;2.13;;
11443;SDS011;5778;47.856;12.154;2023-02-21T01:34:11;3.17;;;2.77;;
11443;SDS011;5778;47.856;12.154;2023-02-21T01:36:55;3.07;;;2.20;;
11443;SDS011;5778;47.856;12.154;2023-02-21T01:39:40;3.07;;;2.33;;
11443;SDS011;5778;47.856;12.154;2023-02-21T01:42:25;2.93;;;2.40;;
11443;SDS011;5778;47.856;12.154;2023-02-21T01:45:37;3.33;;;2.47;;
11443;SDS011;5778;47.856;12.154;2023-02-21T01:48:25;4.30;;;2.63;;
11443;SDS011;5778;47.856;12.154;2023-02-21T01:51:11;3.00;;;2.60;;
11443;SDS011;5778;47.856;12.154;2023-02-21T01:54:00;2.67;;;2.40;;
11443;SDS011;5778;47.856;12.154;2023-02-21T01:56:44;3.33;;;2.80;;
11443;SDS011;5778;47.856;12.154;2023-02-21T01:59:29;2.70;;;2.40;;
11443;SDS011;5778;47.856;12.154;2023-02-21T02:02:17;2.57;;;2.37;;
11443;SDS011;5778;47.856;12.154;2023-02-21T02:05:06;3.10;;;2.60;;
11443;SDS011;5778;47.856;12.154;2023-02-21T02:07:52;3.20;;;2.80;;
11443;SDS011;5778;47.856;12.154;2023-02-21T02:10:38;4.30;;;2.50;;
11443;SDS011;5778;47.856;12.154;2023-02-21T02:13:34;2.70;;;2.50;;
11443;SDS011;5778;47.856;12.154;2023-02-21T02:16:16;2.80;;;2.60;;
11443;SDS011;5778;47.856;12.154;2023-02-21T02:25:05;4.50;;;2.90;;
11443;SDS011;5778;47.856;12.154;2023-02-21T02:28:01;2.87;;;2.57;;
11443;SDS011;5778;47.856;12.154;2023-02-21T02:37:11;3.67;;;2.43;;
11443;SDS011;5778;47.856;12.154;2023-02-21T02:39:45;3.10;;;2.80;;
11443;SDS011;5778;47.856;12.154;2023-02-21T02:42:23;2.97;;;2.70;;
11443;SDS011;5778;47.856;12.154;2023-02-21T02:44:59;4.20;;;3.30;;
11443;SDS011;5778;47.856;12.154;2023-02-21T02:47:33;4.67;;;2.80;;
11443;SDS011;5778;47.856;12.154;2023-02-21T02:50:05;4.90;;;2.67;;
11443;SDS011;5778;47.856;12.154;2023-02-21T02:52:35;3.83;;;3.13;;
11443;SDS011;5778;47.856;12.154;2023-02-21T02:55:04;4.47;;;3.00;;
11443;SDS011;5778;47.856;12.154;2023-02-21T02:57:50;3.60;;;3.00;;
11443;SDS011;5778;47.856;12.154;2023-02-21T03:00:19;5.63;;;3.20;;
11443;SDS011;5778;47.856;12.154;2023-02-21T03:02:49;3.80;;;3.00;;
11443;SDS011;5778;47.856;12.154;2023-02-21T03:05:34;3.80;;;2.63;;
11443;SDS011;5778;47.856;12.154;2023-02-21T03:08:13;3.07;;;2.43;;
11443;SDS011;5778;47.856;12.154;2023-02-21T03:10:50;6.03;;;3.00;;
11443;SDS011;5778;47.856;12.154;2023-02-21T03:13:24;3.17;;;2.83;;
11443;SDS011;5778;47.856;12.154;2023-02-21T03:16:03;3.87;;;2.93;;
11443;SDS011;5778;47.856;12.154;2023-02-21T03:18:36;4.30;;;2.80;;
11443;SDS011;5778;47.856;12.154;2023-02-21T03:21:10;3.70;;;2.80;;
11443;SDS011;5778;47.856;12.154;2023-02-21T03:23:40;5.43;;;2.70;;
11443;SDS011;5778;47.856;12.154;2023-02-21T03:26:13;3.70;;;2.50;;
11443;SDS011;5778;47.856;12.154;2023-02-21T03:28:45;3.23;;;2.63;;
11443;SDS011;5778;47.856;12.154;2023-02-21T03:31:15;3.37;;;2.80;;
11443;SDS011;5778;47.856;12.154;2023-02-21T03:33:45;4.63;;;2.80;;
11443;SDS011;5778;47.856;12.154;2023-02-21T03:36:14;3.03;;;2.60;;
11443;SDS011;5778;47.856;12.154;2023-02-21T03:38:42;3.10;;;2.80;;
11443;SDS011;5778;47.856;12.154;2023-02-21T03:41:09;4.20;;;2.80;;
11443;SDS011;5778;47.856;12.154;2023-02-21T03:43:38;4.67;;;2.87;;
11443;SDS011;5778;47.856;12.154;2023-02-21T03:46:06;5.10;;;3.10;;
11443;SDS011;5778;47.856;12.154;2023-02-21T03:48:34;5.20;;;2.80;;
11443;SDS011;5778;47.856;12.154;2023-02-21T03:51:13;5.13;;;3.03;;
11443;SDS011;5778;47.856;12.154;2023-02-21T03:53:41;4.80;;;3.07;;
11443;SDS011;5778;47.856;12.154;2023-02-21T03:56:10;6.37;;;3.30;;
11443;SDS011;5778;47.856;12.154;2023-02-21T03:58:57;3.67;;;2.90;;
11443;SDS011;5778;47.856;12.154;2023-02-21T04:01:25;6.83;;;3.77;;
11443;SDS011;5778;47.856;12.154;2023-02-21T04:03:53;3.07;;;2.77;;
11443;SDS011;5778;47.856;12.154;2023-02-21T04:06:22;5.23;;;3.73;;
11443;SDS011;5778;47.856;12.154;2023-02-21T04:08:50;6.30;;;4.30;;
11443;SDS011;5778;47.856;12.154;2023-02-21T04:11:18;5.43;;;3.60;;
11443;SDS011;5778;47.856;12.154;2023-02-21T04:13:47;5.63;;;3.40;;
11443;SDS011;5778;47.856;12.154;2023-02-21T04:16:14;5.07;;;3.27;;
11443;SDS011;5778;47.856;12.154;2023-02-21T04:18:41;4.03;;;3.00;;
11443;SDS011;5778;47.856;12.154;2023-02-21T04:21:09;3.23;;;2.77;;
11443;SDS011;5778;47.856;12.154;2023-02-21T04:23:38;4.73;;;2.93;;
11443;SDS011;5778;47.856;12.154;2023-02-21T04:26:05;3.43;;;2.83;;
11443;SDS011;5778;47.856;12.154;2023-02-21T04:28:50;4.43;;;3.00;;
11443;SDS011;5778;47.856;12.154;2023-02-21T04:31:18;4.43;;;3.13;;
11443;SDS011;5778;47.856;12.154;2023-02-21T04:33:45;3.47;;;2.80;;
11443;SDS011;5778;47.856;12.154;2023-02-21T04:36:19;3.43;;;2.70;;
11443;SDS011;5778;47.856;12.154;2023-02-21T04:38:47;3.33;;;3.03;;
11443;SDS011;5778;47.856;12.154;2023-02-21T04:41:15;4.00;;;3.10;;
11443;SDS011;5778;47.856;12.154;2023-02-21T04:43:42;3.67;;;3.00;;
11443;SDS011;5778;47.856;12.154;2023-02-21T04:46:11;4.47;;;3.10;;
11443;SDS011;5778;47.856;12.154;2023-02-21T04:48:40;3.93;;;2.70;;
11443;SDS011;5778;47.856;12.154;2023-02-21T04:51:07;8.03;;;3.00;;
11443;SDS011;5778;47.856;12.154;2023-02-21T04:53:36;4.30;;;2.73;;
11443;SDS011;5778;47.856;12.154;2023-02-21T04:56:05;4.30;;;3.00;;
11443;SDS011;5778;47.856;12.154;2023-02-21T04:58:32;3.50;;;3.03;;
11443;SDS011;5778;47.856;12.154;2023-02-21T05:00:59;5.23;;;2.70;;
11443;SDS011;5778;47.856;12.154;2023-02-21T05:03:26;3.07;;;2.43;;
11443;SDS011;5778;47.856;12.154;2023-02-21T05:05:54;4.20;;;2.93;;
11443;SDS011;5778;47.856;12.154;2023-02-21T05:08:21;4.37;;;2.60;;
11443;SDS011;5778;47.856;12.154;2023-02-21T05:10:49;5.80;;;2.77;;
11443;SDS011;5778;47.856;12.154;2023-02-21T05:13:21;2.67;;;2.47;;
11443;SDS011;5778;47.856;12.154;2023-02-21T05:15:48;3.33;;;2.83;;
11443;SDS011;5778;47.856;12.154;2023-02-21T05:18:16;3.77;;;2.77;;
11443;SDS011;5778;47.856;12.154;2023-02-21T05:20:47;6.23;;;3.00;;
11443;SDS011;5778;47.856;12.154;2023-02-21T05:23:15;4.43;;;2.63;;
11443;SDS011;5778;47.856;12.154;2023-02-21T05:25:43;4.80;;;3.13;;
11443;SDS011;5778;47.856;12.154;2023-02-21T05:28:11;3.30;;;3.00;;
11443;SDS011;5778;47.856;12.154;2023-02-21T05:30:39;4.30;;;3.40;;
11443;SDS011;5778;47.856;12.154;2023-02-21T05:33:07;5.10;;;2.93;;
11443;SDS011;5778;47.856;12.154;2023-02-21T05:35:34;4.03;;;3.30;;
11443;SDS011;5778;47.856;12.154;2023-02-21T05:38:01;4.73;;;3.73;;
11443;SDS011;5778;47.856;12.154;2023-02-21T05:40:28;5.40;;;3.50;;
11443;SDS011;5778;47.856;12.154;2023-02-21T05:42:56;5.60;;;3.17;;
11443;SDS011;5778;47.856;12.154;2023-02-21T05:45:23;5.27;;;3.33;;
11443;SDS011;5778;47.856;12.154;2023-02-21T05:47:52;6.80;;;3.30;;
11443;SDS011;5778;47.856;12.154;2023-02-21T05:50:24;4.90;;;2.90;;
11443;SDS011;5778;47.856;12.154;2023-02-21T05:52:51;5.53;;;2.90;;
11443;SDS011;5778;47.856;12.154;2023-02-21T05:55:19;4.77;;;3.03;;
11443;SDS011;5778;47.856;12.154;2023-02-21T05:57:46;6.27;;;5.13;;
11443;SDS011;5778;47.856;12.154;2023-02-21T06:00:14;6.20;;;5.50;;
11443;SDS011;5778;47.856;12.154;2023-02-21T06:02:43;6.63;;;6.03;;
11443;SDS011;5778;47.856;12.154;2023-02-21T06:05:11;8.97;;;6.70;;
11443;SDS011;5778;47.856;12.154;2023-02-21T06:07:39;7.33;;;6.50;;
11443;SDS011;5778;47.856;12.154;2023-02-21T06:10:06;4.50;;;3.80;;
11443;SDS011;5778;47.856;12.154;2023-02-21T06:12:35;5.53;;;5.03;;
11443;SDS011;5778;47.856;12.154;2023-02-21T06:15:02;4.90;;;4.40;;
11443;SDS011;5778;47.856;12.154;2023-02-21T06:17:31;4.70;;;3.20;;
11443;SDS011;5778;47.856;12.154;2023-02-21T06:19:59;5.33;;;3.30;;
11443;SDS011;5778;47.856;12.154;2023-02-21T06:22:31;5.23;;;3.60;;
11443;SDS011;5778;47.856;12.154;2023-02-21T06:24:58;3.63;;;2.87;;
11443;SDS011;5778;47.856;12.154;2023-02-21T06:27:25;3.90;;;3.40;;
11443;SDS011;5778;47.856;12.154;2023-02-21T06:29:52;4.27;;;3.37;;
11443;SDS011;5778;47.856;12.154;2023-02-21T06:32:19;3.83;;;3.07;;
11443;SDS011;5778;47.856;12.154;2023-02-21T06:34:47;4.83;;;3.47;;
11443;SDS011;5778;47.856;12.154;2023-02-21T06:37:14;4.17;;;3.77;;
11443;SDS011;5778;47.856;12.154;2023-02-21T06:39:44;7.67;;;6.53;;
11443;SDS011;5778;47.856;12.154;2023-02-21T06:42:12;7.07;;;6.13;;
11443;SDS011;5778;47.856;12.154;2023-02-21T06:44:41;4.87;;;4.30;;
11443;SDS011;5778;47.856;12.154;2023-02-21T06:47:08;4.93;;;4.40;;
11443;SDS011;5778;47.856;12.154;2023-02-21T06:49:36;4.00;;;3.60;;
11443;SDS011;5778;47.856;12.154;2023-02-21T06:52:03;3.27;;;2.83;;
11443;SDS011;5778;47.856;12.154;2023-02-21T06:54:31;7.57;;;3.40;;
11443;SDS011;5778;47.856;12.154;2023-02-21T06:57:00;4.57;;;3.00;;
11443;SDS011;5778;47.856;12.154;2023-02-21T06:59:27;5.63;;;3.30;;
11443;SDS011;5778;47.856;12.154;2023-02-21T07:01:54;4.80;;;3.13;;
11443;SDS011;5778;47.856;12.154;2023-02-21T07:04:22;6.97;;;5.77;;
11443;SDS011;5778;47.856;12.154;2023-02-21T07:06:49;6.10;;;5.30;;
11443;SDS011;5778;47.856;12.154;2023-02-21T07:09:17;5.93;;;4.40;;
11443;SDS011;5778;47.856;12.154;2023-02-21T07:11:45;16.07;;;12.97;;
11443;SDS011;5778;47.856;12.154;2023-02-21T07:14:15;3.90;;;3.50;;
11443;SDS011;5778;47.856;12.154;2023-02-21T07:16:42;3.80;;;3.10;;
11443;SDS011;5778;47.856;12.154;2023-02-21T07:19:10;6.23;;;3.63;;
11443;SDS011;5778;47.856;12.154;2023-02-21T07:21:40;5.27;;;3.10;;
11443;SDS011;5778;47.856;12.154;2023-02-21T07:24:07;4.20;;;3.20;;
11443;SDS011;5778;47.856;12.154;2023-02-21T07:26:34;4.07;;;2.90;;
11443;SDS011;5778;47.856;12.154;2023-02-21T07:29:02;5.70;;;3.20;;
11443;SDS011;5778;47.856;12.154;2023-02-21T07:31:31;11.27;;;3.37;;
11443;SDS011;5778;47.856;12.154;2023-02-21T07:34:00;4.87;;;3.37;;
11443;SDS011;5778;47.856;12.154;2023-02-21T07:36:27;6.03;;;3.07;;
11443;SDS011;5778;47.856;12.154;2023-02-21T07:38:55;5.37;;;2.87;;
11443;SDS011;5778;47.856;12.154;2023-02-21T07:41:23;8.60;;;3.40;;
11443;SDS011;5778;47.856;12.154;2023-02-21T07:43:50;6.77;;;3.27;;
11443;SDS011;5778;47.856;12.154;2023-02-21T07:46:18;6.73;;;3.50;;
11443;SDS011;5778;47.856;12.154;2023-02-21T07:48:46;6.10;;;3.50;;
11443;SDS011;5778;47.856;12.154;2023-02-21T07:51:13;7.10;;;3.23;;
11443;SDS011;5778;47.856;12.154;2023-02-21T07:53:41;7.07;;;4.23;;
11443;SDS011;5778;47.856;12.154;2023-02-21T07:56:08;7.43;;;3.43;;
11443;SDS011;5778;47.856;12.154;2023-02-21T07:58:36;6.67;;;2.90;;
11443;SDS011;5778;47.856;12.154;2023-02-21T08:01:03;4.17;;;2.83;;
11443;SDS011;5778;47.856;12.154;2023-02-21T08:03:32;3.67;;;2.70;;
11443;SDS011;5778;47.856;12.154;2023-02-21T08:06:00;4.03;;;2.57;;
11443;SDS011;5778;47.856;12.154;2023-02-21T08:08:28;5.07;;;2.70;;
11443;SDS011;5778;47.856;12.154;2023-02-21T08:10:55;5.73;;;2.93;;
11443;SDS011;5778;47.856;12.154;2023-02-21T08:13:23;3.23;;;2.90;;
11443;SDS011;5778;47.856;12.154;2023-02-21T08:15:50;3.67;;;2.40;;
11443;SDS011;5778;47.856;12.154;2023-02-21T08:18:18;3.40;;;2.80;;
11443;SDS011;5778;47.856;12.154;2023-02-21T08:20:48;3.57;;;2.50;;
11443;SDS011;5778;47.856;12.154;2023-02-21T08:23:21;2.50;;;2.30;;
11443;SDS011;5778;47.856;12.154;2023-02-21T08:25:49;3.73;;;2.90;;
11443;SDS011;5778;47.856;12.154;2023-02-21T08:28:16;4.17;;;2.60;;
11443;SDS011;5778;47.856;12.154;2023-02-21T08:30:43;5.27;;;2.50;;
11443;SDS011;5778;47.856;12.154;2023-02-21T08:33:10;5.13;;;2.73;;
11443;SDS011;5778;47.856;12.154;2023-02-21T08:35:37;4.57;;;2.90;;
11443;SDS011;5778;47.856;12.154;2023-02-21T08:38:04;3.33;;;2.57;;
11443;SDS011;5778;47.856;12.154;2023-02-21T08:40:34;4.20;;;2.70;;
11443;SDS011;5778;47.856;12.154;2023-02-21T08:43:02;3.17;;;2.50;;
11443;SDS011;5778;47.856;12.154;2023-02-21T08:45:30;6.37;;;3.60;;
11443;SDS011;5778;47.856;12.154;2023-02-21T08:47:57;3.57;;;2.90;;
11443;SDS011;5778;47.856;12.154;2023-02-21T08:50:26;3.43;;;2.40;;
11443;SDS011;5778;47.856;12.154;2023-02-21T08:52:54;4.80;;;2.50;;
11443;SDS011;5778;47.856;12.154;2023-02-21T08:55:22;4.17;;;2.90;;
11443;SDS011;5778;47.856;12.154;2023-02-21T08:57:52;3.40;;;2.63;;
11443;SDS011;5778;47.856;12.154;2023-02-21T09:00:21;3.43;;;2.47;;
11443;SDS011;5778;47.856;12.154;2023-02-21T09:02:49;3.37;;;2.40;;
11443;SDS011;5778;47.856;12.154;2023-02-21T09:05:17;3.40;;;2.50;;
11443;SDS011;5778;47.856;12.154;2023-02-21T09:07:49;3.57;;;2.67;;
11443;SDS011;5778;47.856;12.154;2023-02-21T09:10:19;3.57;;;2.40;;
11443;SDS011;5778;47.856;12.154;2023-02-21T09:12:47;3.37;;;2.27;;
11443;SDS011;5778;47.856;12.154;2023-02-21T09:15:15;2.50;;;2.07;;
11443;SDS011;5778;47.856;12.154;2023-02-21T09:17:43;4.70;;;2.50;;
11443;SDS011;5778;47.856;12.154;2023-02-21T09:20:11;5.40;;;2.80;;
11443;SDS011;5778;47.856;12.154;2023-02-21T09:22:42;4.57;;;2.50;;
11443;SDS011;5778;47.856;12.154;2023-02-21T09:25:11;2.50;;;2.10;;
11443;SDS011;5778;47.856;12.154;2023-02-21T09:27:39;2.67;;;2.40;;
11443;SDS011;5778;47.856;12.154;2023-02-21T09:30:07;7.03;;;2.83;;
11443;SDS011;5778;47.856;12.154;2023-02-21T09:32:39;5.63;;;2.83;;
11443;SDS011;5778;47.856;12.154;2023-02-21T09:35:07;2.97;;;2.40;;
11443;SDS011;5778;47.856;12.154;2023-02-21T09:37:36;3.97;;;2.50;;
11443;SDS011;5778;47.856;12.154;2023-02-21T09:40:04;3.23;;;2.33;;
11443;SDS011;5778;47.856;12.154;2023-02-21T09:42:35;4.27;;;2.77;;
11443;SDS011;5778;47.856;12.154;2023-02-21T09:45:02;2.60;;;2.10;;
11443;SDS011;5778;47.856;12.154;2023-02-21T09:47:30;2.40;;;2.20;;
11443;SDS011;5778;47.856;12.154;2023-02-21T09:50:03;4.77;;;2.23;;
11443;SDS011;5778;47.856;12.154;2023-02-21T09:52:32;4.20;;;2.00;;
11443;SDS011;5778;47.856;12.154;2023-02-21T09:55:02;2.40;;;2.20;;
11443;SDS011;5778;47.856;12.154;2023-02-21T09:57:34;4.37;;;2.20;;
11443;SDS011;5778;47.856;12.154;2023-02-21T10:00:05;2.23;;;1.93;;
11443;SDS011;5778;47.856;12.154;2023-02-21T10:02:43;3.20;;;1.73;;
11443;SDS011;5778;47.856;12.154;2023-02-21T10:05:25;1.93;;;1.50;;
11443;SDS011;5778;47.856;12.154;2023-02-21T10:08:05;3.80;;;2.10;;
11443;SDS011;5778;47.856;12.154;2023-02-21T10:10:37;1.87;;;1.40;;
11443;SDS011;5778;47.856;12.154;2023-02-21T10:13:14;4.07;;;1.90;;
11443;SDS011;5778;47.856;12.154;2023-02-21T10:15:54;2.83;;;1.47;;
11443;SDS011;5778;47.856;12.154;2023-02-21T10:18:28;2.73;;;1.60;;
11443;SDS011;5778;47.856;12.154;2023-02-21T10:21:07;2.47;;;1.70;;
11443;SDS011;5778;47.856;12.154;2023-02-21T10:23:40;2.87;;;2.20;;
11443;SDS011;5778;47.856;12.154;2023-02-21T10:26:11;3.60;;;2.20;;
11443;SDS011;5778;47.856;12.154;2023-02-21T10:28:41;3.33;;;2.27;;
11443;SDS011;5778;47.856;12.154;2023-02-21T10:31:10;3.07;;;2.00;;
11443;SDS011;5778;47.856;12.154;2023-02-21T10:33:41;3.70;;;2.00;;
11443;SDS011;5778;47.856;12.154;2023-02-21T10:36:11;2.07;;;1.50;;
11443;SDS011;5778;47.856;12.154;2023-02-21T10:38:40;6.23;;;2.07;;
11443;SDS011;5778;47.856;12.154;2023-02-21T10:41:12;2.43;;;1.53;;
11443;SDS011;5778;47.856;12.154;2023-02-21T10:43:41;3.20;;;1.50;;
11443;SDS011;5778;47.856;12.154;2023-02-21T10:46:14;3.40;;;1.67;;
11443;SDS011;5778;47.856;12.154;2023-02-21T10:48:46;3.30;;;1.70;;
11443;SDS011;5778;47.856;12.154;2023-02-21T10:51:27;4.20;;;1.53;;
11443;SDS011;5778;47.856;12.154;2023-02-21T10:54:15;2.70;;;1.30;;
11443;SDS011;5778;47.856;12.154;2023-02-21T10:56:43;3.53;;;1.80;;
11443;SDS011;5778;47.856;12.154;2023-02-21T10:59:12;2.47;;;1.60;;
11443;SDS011;5778;47.856;12.154;2023-02-21T11:01:46;2.00;;;1.40;;
11443;SDS011;5778;47.856;12.154;2023-02-21T11:04:25;3.83;;;2.00;;
11443;SDS011;5778;47.856;12.154;2023-02-21T11:06:58;2.93;;;1.73;;
11443;SDS011;5778;47.856;12.154;2023-02-21T11:09:30;2.00;;;1.47;;
11443;SDS011;5778;47.856;12.154;2023-02-21T11:12:01;2.90;;;1.90;;
11443;SDS011;5778;47.856;12.154;2023-02-21T11:14:30;2.13;;;1.73;;
11443;SDS011;5778;47.856;12.154;2023-02-21T11:17:12;2.10;;;1.70;;
11443;SDS011;5778;47.856;12.154;2023-02-21T11:19:42;2.80;;;1.37;;
11443;SDS011;5778;47.856;12.154;2023-02-21T11:22:13;2.80;;;1.30;;
11443;SDS011;5778;47.856;12.154;2023-02-21T11:27:31;10.03;;;1.80;;
11443;SDS011;5778;47.856;12.154;2023-02-21T11:30:00;3.43;;;1.60;;
11443;SDS011;5778;47.856;12.154;2023-02-21T11:32:30;4.07;;;1.90;;
11443;SDS011;5778;47.856;12.154;2023-02-21T11:35:14;3.13;;;1.70;;
11443;SDS011;5778;47.856;12.154;2023-02-21T11:37:51;1.90;;;1.60;;
11443;SDS011;5778;47.856;12.154;2023-02-21T11:40:27;2.70;;;1.53;;
11443;SDS011;5778;47.856;12.154;2023-02-21T11:43:09;2.57;;;1.47;;
11443;SDS011;5778;47.856;12.154;2023-02-21T11:45:51;2.70;;;1.50;;
11443;SDS011;5778;47.856;12.154;2023-02-21T11:48:28;2.30;;;1.20;;
11443;SDS011;5778;47.856;12.154;2023-02-21T11:50:59;2.57;;;1.60;;
11443;SDS011;5778;47.856;12.154;2023-02-21T11:53:35;3.47;;;1.50;;
11443;SDS011;5778;47.856;12.154;2023-02-21T11:56:10;2.23;;;1.50;;
11443;SDS011;5778;47.856;12.154;2023-02-21T11:58:47;4.10;;;1.70;;
11443;SDS011;5778;47.856;12.154;2023-02-21T12:01:23;1.80;;;1.50;;
11443;SDS011;5778;47.856;12.154;2023-02-21T12:03:58;1.87;;;1.30;;
11443;SDS011;5778;47.856;12.154;2023-02-21T12:06:40;1.53;;;1.43;;
11443;SDS011;5778;47.856;12.154;2023-02-21T12:09:14;1.73;;;1.30;;
11443;SDS011;5778;47.856;12.154;2023-02-21T12:11:50;1.20;;;1.10;;
11443;SDS011;5778;47.856;12.154;2023-02-21T12:14:28;1.40;;;1.30;;
11443;SDS011;5778;47.856;12.154;2023-02-21T12:17:07;1.47;;;1.23;;
11443;SDS011;5778;47.856;12.154;2023-02-21T12:19:48;2.50;;;1.40;;
11443;SDS011;5778;47.856;12.154;2023-02-21T12:22:30;4.63;;;1.70;;
11443;SDS011;5778;47.856;12.154;2023-02-21T12:25:13;8.93;;;4.50;;
11443;SDS011;5778;47.856;12.154;2023-02-21T12:27:47;4.93;;;1.67;;
11443;SDS011;5778;47.856;12.154;2023-02-21T12:30:25;2.20;;;1.30;;
11443;SDS011;5778;47.856;12.154;2023-02-21T12:33:04;4.80;;;2.63;;
11443;SDS011;5778;47.856;12.154;2023-02-21T12:35:49;4.83;;;1.70;;
11443;SDS011;5778;47.856;12.154;2023-02-21T12:38:38;3.47;;;1.83;;
11443;SDS011;5778;47.856;12.154;2023-02-21T12:41:21;1.43;;;1.10;;
11443;SDS011;5778;47.856;12.154;2023-02-21T12:43:57;1.70;;;1.50;;
11443;SDS011;5778;47.856;12.154;2023-02-21T12:46:30;1.27;;;1.10;;
11443;SDS011;5778;47.856;12.154;2023-02-21T12:49:01;1.30;;;1.03;;
11443;SDS011;5778;47.856;12.154;2023-02-21T12:51:31;4.30;;;1.30;;
11443;SDS011;5778;47.856;12.154;2023-02-21T12:54:03;2.97;;;1.33;;
11443;SDS011;5778;47.856;12.154;2023-02-21T12:56:36;2.47;;;1.10;;
11443;SDS011;5778;47.856;12.154;2023-02-21T12:59:10;1.23;;;1.10;;
11443;SDS011;5778;47.856;12.154;2023-02-21T13:01:43;2.27;;;1.20;;
11443;SDS011;5778;47.856;12.154;2023-02-21T13:04:17;3.60;;;1.10;;
11443;SDS011;5778;47.856;12.154;2023-02-21T13:06:56;0.90;;;0.90;;
11443;SDS011;5778;47.856;12.154;2023-02-21T13:09:30;1.27;;;0.90;;
11443;SDS011;5778;47.856;12.154;2023-02-21T13:12:03;1.37;;;1.00;;
11443;SDS011;5778;47.856;12.154;2023-02-21T13:14:36;4.47;;;1.23;;
11443;SDS011;5778;47.856;12.154;2023-02-21T13:17:08;1.80;;;1.10;;
11443;SDS011;5778;47.856;12.154;2023-02-21T13:19:38;2.53;;;1.13;;
11443;SDS011;5778;47.856;12.154;2023-02-21T13:25:53;2.60;;;0.90;;
11443;SDS011;5778;47.856;12.154;2023-02-21T13:28:32;1.10;;;1.00;;
11443;SDS011;5778;47.856;12.154;2023-02-21T13:31:03;2.40;;;1.17;;
11443;SDS011;5778;47.856;12.154;2023-02-21T13:33:34;1.10;;;1.00;;
11443;SDS011;5778;47.856;12.154;2023-02-21T13:36:17;0.90;;;0.90;;
11443;SDS011;5778;47.856;12.154;2023-02-21T13:38:56;1.67;;;0.90;;
11443;SDS011;5778;47.856;12.154;2023-02-21T13:41:25;3.30;;;0.90;;
11443;SDS011;5778;47.856;12.154;2023-02-21T13:43:56;1.80;;;1.00;;
11443;SDS011;5778;47.856;12.154;2023-02-21T13:46:25;2.37;;;1.00;;
11443;SDS011;5778;47.856;12.154;2023-02-21T13:49:47;1.40;;;1.00;;
11443;SDS011;5778;47.856;12.154;2023-02-21T14:07:17;3.97;;;1.10;;
11443;SDS011;5778;47.856;12.154;2023-02-21T14:10:12;1.23;;;0.87;;
11443;SDS011;5778;47.856;12.154;2023-02-21T14:12:49;1.33;;;0.80;;
11443;SDS011;5778;47.856;12.154;2023-02-21T14:15:19;0.93;;;0.93;;
11443;SDS011;5778;47.856;12.154;2023-02-21T14:17:48;1.17;;;0.90;;
11443;SDS011;5778;47.856;12.154;2023-02-21T14:20:18;3.13;;;0.80;;
11443;SDS011;5778;47.856;12.154;2023-02-21T14:22:49;1.50;;;0.90;;
11443;SDS011;5778;47.856;12.154;2023-02-21T14:25:19;2.10;;;0.83;;
11443;SDS011;5778;47.856;12.154;2023-02-21T14:27:50;1.07;;;0.70;;
11443;SDS011;5778;47.856;12.154;2023-02-21T14:30:23;1.27;;;0.70;;
11443;SDS011;5778;47.856;12.154;2023-02-21T14:32:58;2.17;;;0.83;;
11443;SDS011;5778;47.856;12.154;2023-02-21T14:35:50;1.10;;;0.90;;
11443;SDS011;5778;47.856;12.154;2023-02-21T14:38:28;1.40;;;0.67;;
11443;SDS011;5778;47.856;12.154;2023-02-21T14:41:02;1.77;;;0.83;;
11443;SDS011;5778;47.856;12.154;2023-02-21T14:50:07;1.50;;;0.70;;
11443;SDS011;5778;47.856;12.154;2023-02-21T14:56:00;2.10;;;0.90;;
11443;SDS011;5778;47.856;12.154;2023-02-21T15:01:55;2.97;;;1.00;;
11443;SDS011;5778;47.856;12.154;2023-02-21T15:04:33;0.73;;;0.70;;
11443;SDS011;5778;47.856;12.154;2023-02-21T15:07:14;0.93;;;0.70;;
11443;SDS011;5778;47.856;12.154;2023-02-21T15:09:56;1.50;;;0.70;;
11443;SDS011;5778;47.856;12.154;2023-02-21T15:12:32;2.97;;;0.70;;
11443;SDS011;5778;47.856;12.154;2023-02-21T15:15:02;0.90;;;0.70;;
11443;SDS011;5778;47.856;12.154;2023-02-21T15:17:29;1.73;;;0.70;;
11443;SDS011;5778;47.856;12.154;2023-02-21T15:20:00;0.90;;;0.90;;
11443;SDS011;5778;47.856;12.154;2023-02-21T15:22:32;0.97;;;0.70;;
11443;SDS011;5778;47.856;12.154;2023-02-21T15:25:01;1.57;;;0.60;;
11443;SDS011;5778;47.856;12.154;2023-02-21T15:27:51;0.77;;;0.50;;
11443;SDS011;5778;47.856;12.154;2023-02-21T15:30:20;0.70;;;0.70;;
11443;SDS011;5778;47.856;12.154;2023-02-21T15:32:52;2.70;;;1.60;;
11443;SDS011;5778;47.856;12.154;2023-02-21T15:35:24;1.57;;;1.10;;
11443;SDS011;5778;47.856;12.154;2023-02-21T15:37:57;1.30;;;1.20;;
11443;SDS011;5778;47.856;12.154;2023-02-21T15:40:26;1.07;;;0.80;;
11443;SDS011;5778;47.856;12.154;2023-02-21T15:42:55;1.63;;;0.90;;
11443;SDS011;5778;47.856;12.154;2023-02-21T15:45:22;1.27;;;0.93;;
11443;SDS011;5778;47.856;12.154;2023-02-21T15:47:51;1.07;;;1.00;;
11443;SDS011;5778;47.856;12.154;2023-02-21T15:50:23;1.20;;;1.10;;
11443;SDS011;5778;47.856;12.154;2023-02-21T15:52:58;1.00;;;0.93;;
11443;SDS011;5778;47.856;12.154;2023-02-21T15:55:41;0.93;;;0.93;;
11443;SDS011;5778;47.856;12.154;2023-02-21T15:58:14;2.60;;;1.10;;
11443;SDS011;5778;47.856;12.154;2023-02-21T16:00:44;2.93;;;1.23;;
11443;SDS011;5778;47.856;12.154;2023-02-21T16:03:31;2.00;;;1.07;;
11443;SDS011;5778;47.856;12.154;2023-02-21T16:06:14;1.00;;;0.90;;
11443;SDS011;5778;47.856;12.154;2023-02-21T16:08:52;2.57;;;0.80;;
11443;SDS011;5778;47.856;12.154;2023-02-21T16:11:31;1.93;;;1.00;;
11443;SDS011;5778;47.856;12.154;2023-02-21T16:14:05;1.67;;;1.10;;